Annette, Alaska
Current Conditions -  °F | °C
As of 12:53 AM on Thursday 23 Oct 2014 (Local Time) from PANT Reporting Station
Light Rain Light Rain  
Wind Chill: 42°   Ceiling: 3300
Heat Index: 48°   Visibility: 10mi
Dew Point: 44°   Wind: 14mph
Humidity: 86%   Direction: 120°ESE
Pressure: 29.38"   Gusts: 21mph
Location:  55.05°N, 131.6°W
Report Text: PANT 230953Z 12012G18KT 10SM -RA BKN033 BKN042 OVC049 09/07 A2938 RMK AO2 RAB23 SLP950 P0001 T00890067
Loading
Personal Weather Stations






























Interactive Weather Map
Tropical Storm Tracking
New forecast layout! Learn more

10-Day Weather Forecast

Advertisements
Track Severe Weather on mobile